Airfield :







YOU CAN JOIN US ON...

 
LOGIN :

Register | Disclaimer

   EN    FR    IT 

 









Legend :    VFR   Marginal VFR   IFR   Intensive IFR   Very Intensive IFR
Visi :
Ceiling :
>= 8 km
>= 3000ft
5 to 8 km
1000 to 3000 ft
1500m to 5 km
500 to 1000 ft
800 to 1500m
200 to 500 ft
< 800m
< 200 ft
Symbols :   Thunderstorms  Fog  Heavy snow  Heavy precipitations  Wind > 20 kt






- Airport Elevation : 792 ft
- IATA code : YSC


CYSC - Sherbrooke

CURRENT METAR :
  • 171300Z AUTO 30007KT 9SM -SN SCT022 BKN055 BKN230 BKN250 M09/M11 A3016 RMK SLP230

EXPIRED METARs :
  • 171248Z AUTO 30008KT 9SM -SN FEW022 OVC050 M08/M11 A3016 RMK SLP228
  • 171200Z AUTO 30006KT 9SM FEW030 BKN044 OVC055 M08/M11 A3012 RMK SLP215
  • 171157Z AUTO 30006KT 9SM FEW030 SCT044 BKN055 M08/M11 A3012 RMK SLP214
  • 171109Z AUTO 31009KT 9SM -SN FEW024 OVC047 M07/M10 A3009 RMK SLP204
  • 171105Z AUTO 30009KT 9SM FEW024 OVC045 M06/M11 A3009 RMK SLP203
  • 171030Z AUTO 30006KT 9SM -SN SCT012 BKN043 M06/M08 A3007 RMK SLP196

TAF TAF CYSC
Valid from the 17 at 11:00 until the 17 at 23:00 UTC


171039Z 1711/1723 30010KT 5SM -SN BKN020
TEMPO 1711/1714 P6SM NSW BKN030
FM171400 30010KT P6SM BKN030
TEMPO 1714/1720 BKN020
FM172000 29010KT P6SM FEW030
BECMG 1722/1723 VRB03KT RMK FCST BASED ON AUTO OBS. NXT FCST BY 171800Z



MET'MAP, your aeronautical weather chart ! - Copyright ORBIFLY December 2007 - Disclaimer

ORBIFLY MET'MAP TEAM :

Programming & Development : Alexandra Zaïnal
Concept & original design : Baudouin d'Aumeries
Assistance for programming : Marc-Olivier Méhu
Technical & hardware support : Manuel Goepfert

Contact : metmap@orbifly.com




SOURCES & CREDITS :

   NOAA